createdAt,value
2019-05-12T00:00:48.389Z,3.00
2019-05-12T00:03:20.946Z,3.67
2019-05-12T00:05:53.237Z,3.63
2019-05-12T00:08:27.680Z,4.03
2019-05-12T00:11:00.261Z,3.00
2019-05-12T00:13:33.001Z,3.70
2019-05-12T00:16:08.640Z,3.57
2019-05-12T00:18:40.372Z,2.80
2019-05-12T00:21:11.686Z,3.30
2019-05-12T00:24:02.009Z,3.57
2019-05-12T00:26:34.591Z,3.57
2019-05-12T00:29:08.779Z,2.70
2019-05-12T00:31:42.099Z,3.20
2019-05-12T00:34:14.137Z,2.90
2019-05-12T00:36:48.641Z,3.50
2019-05-12T00:39:22.105Z,3.40
2019-05-12T00:41:54.850Z,3.10
2019-05-12T00:44:28.493Z,3.13
2019-05-12T00:47:02.661Z,3.07
2019-05-12T00:49:37.901Z,3.70
2019-05-12T00:52:10.814Z,3.30
2019-05-12T00:54:42.325Z,2.97
2019-05-12T00:57:14.114Z,3.27
2019-05-12T00:59:47.821Z,3.90
2019-05-12T01:02:19.119Z,3.13
2019-05-12T01:04:51.492Z,3.57
2019-05-12T01:07:27.849Z,3.30
2019-05-12T01:10:01.400Z,3.70
2019-05-12T01:12:34.813Z,3.27
2019-05-12T01:15:07.987Z,2.63
2019-05-12T01:17:40.519Z,3.17
2019-05-12T01:20:13.480Z,3.10
2019-05-12T01:22:45.318Z,3.90
2019-05-12T01:25:18.058Z,3.23
2019-05-12T01:27:49.082Z,3.07
2019-05-12T01:30:21.449Z,3.53
2019-05-12T01:32:53.214Z,3.17
2019-05-12T01:35:28.295Z,3.53
2019-05-12T01:38:01.559Z,2.97
2019-05-12T01:40:35.148Z,3.07
2019-05-12T01:43:09.482Z,3.23
2019-05-12T01:45:42.183Z,3.00
2019-05-12T01:48:14.029Z,3.23
2019-05-12T01:50:49.295Z,3.50
2019-05-12T01:53:20.709Z,3.57
2019-05-12T01:55:53.117Z,3.40
2019-05-12T01:58:27.776Z,3.63
2019-05-12T02:01:02.853Z,3.37
2019-05-12T02:03:34.685Z,2.93
2019-05-12T02:06:08.260Z,3.30
2019-05-12T02:08:47.748Z,3.17
2019-05-12T02:11:34.295Z,3.63
2019-05-12T02:14:05.837Z,3.23
2019-05-12T02:16:38.800Z,3.43
2019-05-12T02:19:10.301Z,3.30
2019-05-12T02:21:42.917Z,3.10
2019-05-12T02:24:24.306Z,2.90
2019-05-12T02:26:48.877Z,3.63
2019-05-12T02:29:24.613Z,3.03
2019-05-12T02:31:58.987Z,3.07
2019-05-12T02:34:34.736Z,3.47
2019-05-12T02:37:07.597Z,3.17
2019-05-12T02:39:40.065Z,3.40
2019-05-12T02:42:15.623Z,3.30
2019-05-12T02:44:45.806Z,3.43
2019-05-12T02:47:17.570Z,3.00
2019-05-12T02:49:49.977Z,3.67
2019-05-12T02:52:25.861Z,2.97
2019-05-12T02:55:00.822Z,3.47
2019-05-12T02:57:35.872Z,3.23
2019-05-12T03:00:08.797Z,2.97
2019-05-12T03:02:44.224Z,3.37
2019-05-12T03:05:15.348Z,3.40
2019-05-12T03:07:51.122Z,3.20
2019-05-12T03:10:25.281Z,3.30
2019-05-12T03:12:57.223Z,3.40
2019-05-12T03:15:30.141Z,2.83
2019-05-12T03:18:06.265Z,3.40
2019-05-12T03:20:38.122Z,3.67
2019-05-12T03:23:10.743Z,2.53
2019-05-12T03:25:45.747Z,3.10
2019-05-12T03:28:18.463Z,3.90
2019-05-12T03:30:56.895Z,2.70
2019-05-12T03:33:34.337Z,3.97
2019-05-12T03:36:01.785Z,2.83
2019-05-12T03:38:36.014Z,3.20
2019-05-12T03:41:06.913Z,3.87
2019-05-12T03:43:39.311Z,2.97
2019-05-12T03:46:14.987Z,4.33
2019-05-12T03:48:45.524Z,2.97
2019-05-12T03:51:17.448Z,3.63
2019-05-12T03:53:50.129Z,3.07
2019-05-12T03:56:25.825Z,3.30
2019-05-12T03:59:00.408Z,3.87
2019-05-12T04:01:36.439Z,3.63
2019-05-12T04:04:06.448Z,3.57
2019-05-12T04:06:39.774Z,3.17
2019-05-12T04:09:09.734Z,3.50
2019-05-12T04:11:44.226Z,3.27
2019-05-12T04:14:15.462Z,3.40
2019-05-12T04:16:48.179Z,3.80
2019-05-12T04:19:19.936Z,4.40
2019-05-12T04:21:54.564Z,3.47
2019-05-12T04:24:25.601Z,3.60
2019-05-12T04:26:58.287Z,3.00
2019-05-12T04:29:31.034Z,3.63
2019-05-12T04:32:05.065Z,3.87
2019-05-12T04:34:38.255Z,5.10
2019-05-12T04:37:14.860Z,3.47
2019-05-12T04:39:45.966Z,3.53
2019-05-12T04:42:20.455Z,3.70
2019-05-12T04:44:55.049Z,3.87
2019-05-12T04:47:25.350Z,3.87
2019-05-12T04:49:58.158Z,3.20
2019-05-12T04:52:30.924Z,3.23
2019-05-12T04:55:04.677Z,3.80
2019-05-12T04:57:36.114Z,3.70
2019-05-12T05:00:07.710Z,3.50
2019-05-12T05:02:39.057Z,3.80
2019-05-12T05:05:10.490Z,3.87
2019-05-12T05:07:44.807Z,3.60
2019-05-12T05:10:15.334Z,3.30
2019-05-12T05:12:49.874Z,4.17
2019-05-12T05:15:25.024Z,4.07
2019-05-12T05:17:55.497Z,4.30
2019-05-12T05:20:26.328Z,4.10
2019-05-12T05:22:58.057Z,4.57
2019-05-12T05:25:34.068Z,4.10
2019-05-12T05:28:05.454Z,3.50
2019-05-12T05:30:37.982Z,4.20
2019-05-12T05:33:09.819Z,4.30
2019-05-12T05:35:43.567Z,4.27
2019-05-12T05:38:20.546Z,3.70
2019-05-12T05:40:50.111Z,4.23
2019-05-12T05:43:24.717Z,3.13
2019-05-12T05:46:02.445Z,3.90
2019-05-12T05:48:34.526Z,3.57
2019-05-12T05:51:09.102Z,4.30
2019-05-12T05:53:40.017Z,3.87
2019-05-12T05:56:11.350Z,4.50
2019-05-12T05:58:47.118Z,4.10
2019-05-12T06:01:18.265Z,3.90
2019-05-12T06:03:53.157Z,4.30
2019-05-12T06:06:26.886Z,3.70
2019-05-12T06:08:59.689Z,4.30
2019-05-12T06:11:34.557Z,4.37
2019-05-12T06:14:11.443Z,3.60
2019-05-12T06:16:40.393Z,4.20
2019-05-12T06:19:14.900Z,3.73
2019-05-12T06:21:47.377Z,4.37
2019-05-12T06:24:20.330Z,3.67
2019-05-12T06:27:00.016Z,3.73
2019-05-12T06:29:27.185Z,3.30
2019-05-12T06:32:00.105Z,3.80
2019-05-12T06:34:34.271Z,3.20
2019-05-12T06:37:11.889Z,3.57
2019-05-12T06:39:39.326Z,2.93
2019-05-12T06:42:14.492Z,3.40
2019-05-12T06:44:43.831Z,3.90
2019-05-12T06:47:14.448Z,3.60
2019-05-12T06:49:48.866Z,3.43
2019-05-12T06:52:23.717Z,3.50
2019-05-12T06:54:56.829Z,3.60
2019-05-12T06:57:30.269Z,2.80
2019-05-12T07:00:04.600Z,3.43
2019-05-12T07:02:48.424Z,3.10
2019-05-12T07:05:11.359Z,3.60
2019-05-12T07:07:46.282Z,3.00
2019-05-12T07:10:38.458Z,3.60
2019-05-12T07:13:01.808Z,3.40
2019-05-12T07:15:38.128Z,3.00
2019-05-12T07:18:05.874Z,3.20
2019-05-12T07:20:39.462Z,3.00
2019-05-12T07:23:11.261Z,3.63
2019-05-12T07:25:44.497Z,3.60
2019-05-12T07:28:17.130Z,3.70
2019-05-12T07:30:54.322Z,3.40
2019-05-12T07:33:26.185Z,3.47
2019-05-12T07:36:01.370Z,3.23
2019-05-12T07:38:35.009Z,2.50
2019-05-12T07:41:10.934Z,3.00
2019-05-12T07:43:50.489Z,2.70
2019-05-12T07:46:19.396Z,1.93
2019-05-12T07:48:54.217Z,2.10
2019-05-12T07:51:30.275Z,2.70
2019-05-12T07:54:01.211Z,1.97
2019-05-12T07:56:35.783Z,2.13
2019-05-12T07:59:07.445Z,2.13
2019-05-12T08:01:48.206Z,1.70
2019-05-12T08:04:13.498Z,1.50
2019-05-12T08:06:46.948Z,1.97
2019-05-12T08:09:24.266Z,1.70
2019-05-12T08:11:54.875Z,1.83
2019-05-12T08:14:29.367Z,1.90
2019-05-12T08:17:10.480Z,2.00
2019-05-12T08:19:34.820Z,2.03
2019-05-12T08:22:07.386Z,2.30
2019-05-12T08:24:43.639Z,2.50
2019-05-12T08:27:14.453Z,1.90
2019-05-12T08:29:54.409Z,1.83
2019-05-12T08:32:23.814Z,2.37
2019-05-12T08:34:57.186Z,2.00
2019-05-12T08:37:29.546Z,2.10
2019-05-12T08:40:04.081Z,1.87
2019-05-12T08:42:53.977Z,2.70
2019-05-12T08:45:34.097Z,2.27
2019-05-12T08:48:03.677Z,2.40
2019-05-12T08:50:36.168Z,2.37
2019-05-12T08:53:14.030Z,2.30
2019-05-12T08:55:40.607Z,2.43
2019-05-12T08:58:28.184Z,2.00
2019-05-12T09:00:50.133Z,2.70
2019-05-12T09:03:25.421Z,2.60
2019-05-12T09:05:54.992Z,2.13
2019-05-12T09:08:28.554Z,2.23
2019-05-12T09:11:03.391Z,2.50
2019-05-12T09:13:34.241Z,2.60
2019-05-12T09:16:09.632Z,2.60
2019-05-12T09:18:43.485Z,2.70
2019-05-12T09:21:15.473Z,2.20
2019-05-12T09:23:49.029Z,3.60
2019-05-12T09:26:24.980Z,2.57
2019-05-12T09:28:56.305Z,2.33
2019-05-12T09:31:29.722Z,2.50
2019-05-12T09:34:05.489Z,2.67
2019-05-12T09:36:34.206Z,2.30
2019-05-12T09:39:07.025Z,1.97
2019-05-12T09:41:42.790Z,2.07
2019-05-12T09:44:14.191Z,2.00
2019-05-12T09:46:45.961Z,2.03
2019-05-12T09:49:25.094Z,2.13
2019-05-12T09:51:54.290Z,2.00
2019-05-12T09:54:35.455Z,2.00
2019-05-12T09:57:04.366Z,1.80
2019-05-12T09:59:36.157Z,2.20
2019-05-12T10:02:10.628Z,1.90
2019-05-12T10:04:43.664Z,1.90
2019-05-12T10:07:16.262Z,1.90
2019-05-12T10:09:53.952Z,2.17
2019-05-12T10:12:23.573Z,2.00
2019-05-12T10:14:54.903Z,2.27
2019-05-12T10:17:30.197Z,2.40
2019-05-12T10:20:01.145Z,2.60
2019-05-12T10:22:40.022Z,2.10
2019-05-12T10:25:14.443Z,2.47
2019-05-12T10:27:47.177Z,2.50
2019-05-12T10:30:23.466Z,1.70
2019-05-12T10:32:55.350Z,1.93
2019-05-12T10:35:27.833Z,2.20
2019-05-12T10:38:00.253Z,2.50
2019-05-12T10:40:33.883Z,3.13
2019-05-12T10:43:05.811Z,2.37
2019-05-12T10:45:37.395Z,2.43
2019-05-12T10:48:09.757Z,2.43
2019-05-12T10:50:44.360Z,2.30
2019-05-12T10:53:19.773Z,2.40
2019-05-12T10:55:54.359Z,2.10
2019-05-12T10:58:26.762Z,2.13
2019-05-12T11:01:05.211Z,2.10
2019-05-12T11:03:34.380Z,1.90
2019-05-12T11:06:07.819Z,2.10
2019-05-12T11:08:41.433Z,2.33
2019-05-12T11:11:14.042Z,2.30
2019-05-12T11:13:49.970Z,2.47
2019-05-12T11:16:22.716Z,2.57
2019-05-12T11:18:54.609Z,1.80
2019-05-12T11:21:28.108Z,2.00
2019-05-12T11:24:00.455Z,2.10
2019-05-12T11:26:31.794Z,1.83
2019-05-12T11:29:03.755Z,1.90
2019-05-12T11:31:36.771Z,1.73
2019-05-12T11:34:11.302Z,2.13
2019-05-12T11:36:43.805Z,1.93
2019-05-12T11:39:15.830Z,1.90
2019-05-12T11:41:48.465Z,2.13
2019-05-12T11:44:20.758Z,1.90
2019-05-12T11:46:56.081Z,2.03
2019-05-12T11:49:28.655Z,1.90
2019-05-12T11:52:09.222Z,1.80
2019-05-12T11:54:35.547Z,1.70
2019-05-12T11:57:06.920Z,1.73
2019-05-12T11:59:39.541Z,1.40
2019-05-12T12:02:13.538Z,1.50
2019-05-12T12:04:49.266Z,1.80
2019-05-12T12:07:23.901Z,1.70
2019-05-12T12:09:59.421Z,1.60
2019-05-12T12:12:30.928Z,1.73
2019-05-12T12:15:04.697Z,1.80
2019-05-12T12:17:35.831Z,1.57
2019-05-12T12:20:13.940Z,1.70
2019-05-12T12:22:46.369Z,1.70
2019-05-12T12:25:19.779Z,1.90
2019-05-12T12:27:53.578Z,1.60
2019-05-12T12:30:23.957Z,1.80
2019-05-12T12:33:00.262Z,1.53
2019-05-12T12:35:30.548Z,1.93
2019-05-12T12:38:03.676Z,1.60
2019-05-12T12:40:38.504Z,1.60
2019-05-12T12:43:14.246Z,1.40
2019-05-12T12:45:50.273Z,1.90
2019-05-12T12:48:28.101Z,1.30
2019-05-12T12:50:56.590Z,1.70
2019-05-12T12:53:28.061Z,1.60
2019-05-12T12:56:04.432Z,1.70
2019-05-12T12:58:37.420Z,1.40
2019-05-12T13:01:14.185Z,1.47
2019-05-12T13:03:44.509Z,1.33
2019-05-12T13:06:17.333Z,1.70
2019-05-12T13:08:49.395Z,1.47
2019-05-12T13:11:30.493Z,1.70
2019-05-12T13:13:54.793Z,1.60
2019-05-12T13:16:27.229Z,1.30
2019-05-12T13:19:03.867Z,1.50
2019-05-12T13:21:35.751Z,1.63
2019-05-12T13:24:10.954Z,1.73
2019-05-12T13:26:43.544Z,1.80
2019-05-12T13:29:15.394Z,1.70
2019-05-12T13:31:48.491Z,1.90
2019-05-12T13:34:23.722Z,2.50
2019-05-12T13:36:56.740Z,2.20
2019-05-12T13:39:29.494Z,2.20
2019-05-12T13:42:03.110Z,2.03
2019-05-12T13:44:36.440Z,1.80
2019-05-12T13:47:09.365Z,1.60
2019-05-12T13:49:45.216Z,1.93
2019-05-12T13:52:14.332Z,2.10
2019-05-12T13:54:47.176Z,2.37
2019-05-12T13:57:19.970Z,3.00
2019-05-12T13:59:54.275Z,10.20
2019-05-12T14:02:25.432Z,3.07
2019-05-12T14:05:00.388Z,2.80
2019-05-12T14:07:34.387Z,1.73
2019-05-12T14:10:06.542Z,2.30
2019-05-12T14:12:38.169Z,1.70
2019-05-12T14:15:09.829Z,2.17
2019-05-12T14:17:44.242Z,1.70
2019-05-12T14:20:20.247Z,2.43
2019-05-12T14:22:53.749Z,2.20
2019-05-12T14:25:30.783Z,1.60
2019-05-12T14:28:05.393Z,2.07
2019-05-12T14:30:34.425Z,2.07
2019-05-12T14:33:05.966Z,2.10
2019-05-12T14:35:40.835Z,1.83
2019-05-12T14:38:14.118Z,1.80
2019-05-12T14:40:47.193Z,2.30
2019-05-12T14:43:21.876Z,1.93
2019-05-12T14:45:54.520Z,1.97
2019-05-12T14:48:26.347Z,2.00
2019-05-12T14:50:57.807Z,2.33
2019-05-12T14:53:33.035Z,2.00
2019-05-12T14:56:03.839Z,2.10
2019-05-12T14:58:36.833Z,1.80
2019-05-12T15:01:11.457Z,1.80
2019-05-12T15:03:47.777Z,2.67
2019-05-12T15:06:19.551Z,3.03
2019-05-12T15:08:54.061Z,2.67
2019-05-12T15:11:26.626Z,2.37
2019-05-12T15:13:58.206Z,2.10
2019-05-12T15:16:31.834Z,2.50
2019-05-12T15:19:03.548Z,2.00
2019-05-12T15:21:35.530Z,2.20
2019-05-12T15:24:15.516Z,2.40
2019-05-12T15:26:42.881Z,2.00
2019-05-12T15:29:19.840Z,2.03
2019-05-12T15:31:54.110Z,1.90
2019-05-12T15:34:23.698Z,1.60
2019-05-12T15:36:56.533Z,1.70
2019-05-12T15:39:28.810Z,1.70
2019-05-12T15:42:03.633Z,1.60
2019-05-12T15:44:36.943Z,1.70
2019-05-12T15:47:08.486Z,1.97
2019-05-12T15:49:41.141Z,1.70
2019-05-12T15:52:14.193Z,1.60
2019-05-12T15:54:49.976Z,1.93
2019-05-12T15:57:20.541Z,1.47
2019-05-12T15:59:54.169Z,1.60
2019-05-12T16:02:26.277Z,1.70
2019-05-12T16:04:58.633Z,1.60
2019-05-12T16:07:35.645Z,1.60
2019-05-12T16:10:07.071Z,1.63
2019-05-12T16:12:42.940Z,1.77
2019-05-12T16:15:19.181Z,1.90
2019-05-12T16:17:49.671Z,1.70
2019-05-12T16:20:22.570Z,1.87
2019-05-12T16:22:55.321Z,2.23
2019-05-12T16:25:30.631Z,1.90
2019-05-12T16:28:07.594Z,1.80
2019-05-12T16:30:38.710Z,1.80
2019-05-12T16:33:20.287Z,1.80
2019-05-12T16:35:45.997Z,1.80
2019-05-12T16:38:19.833Z,1.90
2019-05-12T16:40:54.161Z,2.20
2019-05-12T16:43:29.286Z,1.70
2019-05-12T16:46:04.376Z,1.80
2019-05-12T16:48:36.506Z,1.80
2019-05-12T16:51:08.862Z,1.70
2019-05-12T16:53:40.573Z,1.70
2019-05-12T16:56:14.562Z,1.90
2019-05-12T16:58:45.445Z,2.00
2019-05-12T17:01:19.441Z,1.70
2019-05-12T17:03:48.743Z,1.70
2019-05-12T17:06:20.540Z,1.67
2019-05-12T17:08:54.592Z,1.93
2019-05-12T17:11:29.992Z,1.90
2019-05-12T17:14:04.656Z,1.80
2019-05-12T17:16:41.808Z,1.80
2019-05-12T17:19:10.634Z,2.00
2019-05-12T17:21:49.469Z,1.87
2019-05-12T17:24:18.801Z,1.50
2019-05-12T17:26:50.210Z,1.77
2019-05-12T17:29:24.049Z,1.80
2019-05-12T17:31:56.977Z,1.90
2019-05-12T17:34:29.300Z,1.70
2019-05-12T17:37:04.017Z,1.70
2019-05-12T17:39:39.095Z,1.80
2019-05-12T17:42:13.193Z,2.00
2019-05-12T17:44:44.889Z,1.80
2019-05-12T17:47:21.439Z,2.07
2019-05-12T17:49:50.396Z,1.83
2019-05-12T17:52:23.522Z,1.63
2019-05-12T17:55:05.810Z,1.93
2019-05-12T17:57:34.014Z,2.00
2019-05-12T18:00:11.179Z,1.60
2019-05-12T18:02:44.189Z,2.00
2019-05-12T18:05:16.717Z,1.90
2019-05-12T18:07:51.054Z,2.07
2019-05-12T18:10:23.825Z,2.10
2019-05-12T18:12:55.066Z,1.90
2019-05-12T18:15:33.593Z,1.73
2019-05-12T18:18:00.642Z,1.70
2019-05-12T18:20:40.143Z,1.93
2019-05-12T18:23:07.659Z,1.53
2019-05-12T18:25:44.169Z,2.00
2019-05-12T18:28:21.577Z,1.70
2019-05-12T18:30:50.921Z,1.80
2019-05-12T18:33:33.571Z,2.43
2019-05-12T18:35:59.425Z,1.93
2019-05-12T18:38:32.861Z,1.60
2019-05-12T18:41:04.773Z,1.83
2019-05-12T18:43:35.737Z,1.80
2019-05-12T18:46:09.242Z,1.50
2019-05-12T18:48:41.086Z,1.50
2019-05-12T18:51:17.230Z,1.50
2019-05-12T18:53:49.502Z,1.70
2019-05-12T18:56:24.794Z,1.60
2019-05-12T18:58:56.822Z,1.50
2019-05-12T19:01:29.173Z,1.60
2019-05-12T19:04:00.009Z,1.93
2019-05-12T19:06:33.803Z,2.10
2019-05-12T19:09:06.982Z,1.90
2019-05-12T19:11:42.085Z,1.70
2019-05-12T19:14:13.486Z,1.60
2019-05-12T19:16:45.866Z,1.97
2019-05-12T19:19:20.254Z,2.10
2019-05-12T19:22:04.979Z,1.60
2019-05-12T19:24:30.121Z,1.83
2019-05-12T19:27:04.384Z,1.80
2019-05-12T19:29:45.507Z,1.70
2019-05-12T19:32:10.330Z,1.87
2019-05-12T19:34:43.377Z,1.83
2019-05-12T19:37:19.555Z,1.97
2019-05-12T19:39:49.829Z,1.97
2019-05-12T19:42:24.468Z,3.10
2019-05-12T19:44:59.704Z,1.70
2019-05-12T19:47:36.292Z,1.70
2019-05-12T19:50:08.881Z,1.80
2019-05-12T19:52:37.161Z,1.70
2019-05-12T19:55:10.509Z,1.90
2019-05-12T19:57:44.550Z,1.80
2019-05-12T20:00:18.016Z,1.90
2019-05-12T20:02:53.751Z,1.87
2019-05-12T20:05:25.397Z,2.00
2019-05-12T20:07:58.185Z,2.10
2019-05-12T20:10:38.053Z,2.00
2019-05-12T20:13:04.397Z,2.10
2019-05-12T20:15:41.067Z,2.20
2019-05-12T20:18:14.868Z,2.20
2019-05-12T20:20:48.061Z,2.17
2019-05-12T20:23:20.769Z,2.20
2019-05-12T20:25:53.662Z,2.30
2019-05-12T20:28:26.357Z,2.23
2019-05-12T20:31:01.607Z,2.37
2019-05-12T20:33:34.421Z,2.50
2019-05-12T20:36:06.469Z,2.30
2019-05-12T20:38:40.535Z,2.27
2019-05-12T20:41:22.360Z,2.47
2019-05-12T20:43:45.472Z,2.00
2019-05-12T20:46:21.743Z,2.30
2019-05-12T20:48:53.644Z,1.80
2019-05-12T20:51:24.593Z,2.20
2019-05-12T20:53:58.665Z,1.80
2019-05-12T20:56:34.317Z,2.47
2019-05-12T20:59:06.767Z,1.97
2019-05-12T21:01:40.786Z,2.13
2019-05-12T21:04:14.216Z,1.97
2019-05-12T21:06:48.552Z,2.00
2019-05-12T21:09:23.527Z,2.20
2019-05-12T21:11:54.975Z,2.30
2019-05-12T21:14:28.405Z,2.00
2019-05-12T21:17:03.106Z,1.80
2019-05-12T21:19:38.584Z,2.10
2019-05-12T21:22:08.035Z,2.00
2019-05-12T21:24:40.537Z,2.30
2019-05-12T21:27:15.830Z,2.10
2019-05-12T21:29:48.898Z,2.07
2019-05-12T21:32:20.812Z,1.93
2019-05-12T21:34:57.934Z,2.07
2019-05-12T21:37:29.034Z,2.20
2019-05-12T21:40:03.653Z,1.97
2019-05-12T21:42:36.424Z,1.97
2019-05-12T21:45:09.868Z,2.10
2019-05-12T21:47:42.968Z,2.37
2019-05-12T21:50:16.114Z,1.87
2019-05-12T21:52:47.837Z,2.10
2019-05-12T21:55:22.167Z,2.07
2019-05-12T21:57:53.995Z,2.53
2019-05-12T22:00:29.838Z,2.00
2019-05-12T22:03:08.199Z,2.00
2019-05-12T22:05:51.089Z,2.20
2019-05-12T22:08:20.793Z,2.37
2019-05-12T22:10:46.206Z,2.13
2019-05-12T22:13:18.313Z,2.30
2019-05-12T22:15:56.976Z,2.27
2019-05-12T22:18:24.111Z,2.20
2019-05-12T22:21:01.016Z,1.90
2019-05-12T22:23:33.162Z,2.23
2019-05-12T22:26:06.689Z,2.10
2019-05-12T22:28:40.512Z,1.90
2019-05-12T22:31:14.829Z,2.00
2019-05-12T22:33:52.115Z,1.80
2019-05-12T22:36:26.789Z,2.40
2019-05-12T22:39:00.926Z,2.47
2019-05-12T22:41:36.838Z,2.13
2019-05-12T22:44:03.961Z,2.10
2019-05-12T22:46:36.483Z,1.97
2019-05-12T22:49:10.423Z,2.33
2019-05-12T22:51:43.544Z,1.70
2019-05-12T22:54:18.153Z,2.47
2019-05-12T22:56:55.136Z,2.10
2019-05-12T22:59:25.748Z,2.20
2019-05-12T23:01:57.785Z,2.00
2019-05-12T23:04:35.633Z,2.77
2019-05-12T23:07:05.306Z,1.93
2019-05-12T23:09:39.237Z,2.33
2019-05-12T23:12:18.454Z,2.20
2019-05-12T23:14:44.405Z,2.53
2019-05-12T23:17:17.334Z,2.50
2019-05-12T23:19:51.499Z,2.10
2019-05-12T23:22:23.638Z,1.93
2019-05-12T23:24:55.357Z,2.13
2019-05-12T23:27:29.843Z,2.03
2019-05-12T23:30:01.473Z,2.30
2019-05-12T23:32:34.631Z,2.23
2019-05-12T23:35:08.870Z,2.60
2019-05-12T23:37:43.967Z,2.70
2019-05-12T23:40:16.655Z,2.13
2019-05-12T23:42:49.631Z,2.30
2019-05-12T23:45:24.359Z,2.40
2019-05-12T23:47:56.929Z,2.40
2019-05-12T23:50:27.861Z,2.10
2019-05-12T23:53:00.317Z,2.33
2019-05-12T23:55:35.091Z,2.30
2019-05-12T23:58:06.875Z,2.80
